createdAt,value
2023-02-06T00:01:34.595Z,-3.59
2023-02-06T00:04:18.960Z,-3.59
2023-02-06T00:07:02.947Z,-3.46
2023-02-06T00:09:48.169Z,-3.54
2023-02-06T00:12:32.278Z,-3.58
2023-02-06T00:15:16.110Z,-3.57
2023-02-06T00:17:59.934Z,-3.43
2023-02-06T00:20:43.772Z,-3.53
2023-02-06T00:23:27.593Z,-3.59
2023-02-06T00:26:12.878Z,-3.66
2023-02-06T00:28:56.920Z,-4.80
2023-02-06T00:31:41.686Z,-3.41
2023-02-06T00:34:25.757Z,-3.83
2023-02-06T00:37:09.634Z,-3.41
2023-02-06T00:39:53.905Z,-3.62
2023-02-06T00:42:39.376Z,-3.66
2023-02-06T00:45:23.399Z,-3.53
2023-02-06T00:48:09.200Z,-3.56
2023-02-06T00:50:54.914Z,-3.73
2023-02-06T00:53:38.913Z,-3.56
2023-02-06T00:56:22.868Z,-3.58
2023-02-06T00:59:08.118Z,-3.67
2023-02-06T01:01:51.933Z,-3.42
2023-02-06T01:04:35.837Z,-3.43
2023-02-06T01:07:19.726Z,-3.54
2023-02-06T01:10:03.559Z,-3.41
2023-02-06T01:12:47.588Z,-3.66
2023-02-06T01:15:33.147Z,-3.42
2023-02-06T01:18:17.189Z,-3.37
2023-02-06T01:21:01.035Z,-3.24
2023-02-06T01:23:46.843Z,-3.48
2023-02-06T01:26:30.697Z,-3.28
2023-02-06T01:29:14.444Z,-3.32
2023-02-06T01:31:59.865Z,-3.28
2023-02-06T01:34:43.770Z,-3.25
2023-02-06T01:37:27.688Z,-3.28
2023-02-06T01:40:16.235Z,-3.40
2023-02-06T01:43:01.521Z,-3.26
2023-02-06T01:45:47.152Z,-3.20
2023-02-06T01:48:36.497Z,-3.20
2023-02-06T01:51:24.728Z,-3.07
2023-02-06T01:54:10.163Z,-3.24
2023-02-06T01:56:59.772Z,-3.16
2023-02-06T01:59:50.550Z,-3.06
2023-02-06T02:02:35.924Z,-3.21
2023-02-06T02:05:21.656Z,-3.43
2023-02-06T02:08:11.567Z,-3.08
2023-02-06T02:10:55.559Z,-3.06
2023-02-06T02:13:40.406Z,-3.25
2023-02-06T02:16:30.837Z,-3.35
2023-02-06T02:19:33.551Z,-3.18
2023-02-06T02:22:55.584Z,-3.21
2023-02-06T02:26:12.658Z,-3.10
2023-02-06T02:29:15.670Z,-3.23
2023-02-06T02:32:23.747Z,-3.31
2023-02-06T02:35:16.180Z,-3.32
2023-02-06T02:38:15.800Z,-3.27
2023-02-06T02:41:09.968Z,-3.15
2023-02-06T02:44:00.664Z,-3.18
2023-02-06T02:46:49.244Z,-3.53
2023-02-06T02:49:35.168Z,-3.15
2023-02-06T02:52:21.038Z,-3.52
2023-02-06T02:55:16.243Z,-3.33
2023-02-06T02:58:06.871Z,-3.24
2023-02-06T03:00:55.581Z,-3.29
2023-02-06T03:03:44.641Z,-3.27
2023-02-06T03:06:47.943Z,-3.34
2023-02-06T03:09:47.098Z,-3.30
2023-02-06T03:12:41.185Z,-3.32
2023-02-06T03:15:31.013Z,-3.40
2023-02-06T03:18:21.159Z,-3.33
2023-02-06T03:21:08.174Z,-3.20
2023-02-06T03:23:56.078Z,-3.12
2023-02-06T03:26:43.139Z,-3.12
2023-02-06T03:29:29.485Z,-3.17
2023-02-06T03:32:18.697Z,-3.12
2023-02-06T03:35:06.563Z,-3.15
2023-02-06T03:37:51.416Z,-3.15
2023-02-06T03:40:36.404Z,-3.10
2023-02-06T03:43:26.252Z,-3.06
2023-02-06T03:46:13.496Z,-3.05
2023-02-06T03:49:01.229Z,-3.12
2023-02-06T03:51:50.476Z,-3.14
2023-02-06T03:54:36.881Z,-3.04
2023-02-06T03:57:23.076Z,-3.28
2023-02-06T04:00:09.754Z,-3.25
2023-02-06T04:02:58.067Z,-3.57
2023-02-06T04:05:42.107Z,-3.21
2023-02-06T04:08:26.004Z,-3.15
2023-02-06T04:11:09.685Z,-3.25
2023-02-06T04:13:53.419Z,-3.22
2023-02-06T04:16:38.774Z,-3.29
2023-02-06T04:19:22.730Z,-3.24
2023-02-06T04:22:07.200Z,-3.35
2023-02-06T04:24:51.057Z,-3.35
2023-02-06T04:27:34.939Z,-3.43
2023-02-06T04:30:19.044Z,-3.32
2023-02-06T04:33:04.350Z,-3.40
2023-02-06T04:35:49.002Z,-3.24
2023-02-06T04:38:32.832Z,-3.20
2023-02-06T04:41:16.702Z,-3.23
2023-02-06T04:44:00.504Z,-3.49
2023-02-06T04:46:44.444Z,-3.34
2023-02-06T04:49:29.846Z,-3.46
2023-02-06T04:52:13.722Z,-3.55
2023-02-06T04:54:57.593Z,-3.36
2023-02-06T04:57:41.422Z,-3.39
2023-02-06T05:00:25.469Z,-3.88
2023-02-06T05:03:09.424Z,-3.50
2023-02-06T05:05:54.703Z,-3.52
2023-02-06T05:08:38.570Z,-3.44
2023-02-06T05:11:22.427Z,-3.60
2023-02-06T05:14:06.151Z,-3.42
2023-02-06T05:16:50.148Z,-3.42
2023-02-06T05:19:34.019Z,-3.47
2023-02-06T05:22:19.163Z,-3.49
2023-02-06T05:25:02.979Z,-3.49
2023-02-06T05:27:47.493Z,-3.50
2023-02-06T05:30:31.392Z,-3.47
2023-02-06T05:33:15.358Z,-3.33
2023-02-06T05:36:03.158Z,-3.45
2023-02-06T05:38:48.519Z,-3.43
2023-02-06T05:41:32.523Z,-3.50
2023-02-06T05:44:16.367Z,-3.53
2023-02-06T05:47:00.551Z,-3.32
2023-02-06T05:49:45.010Z,-3.18
2023-02-06T05:52:28.755Z,-3.13
2023-02-06T05:55:13.980Z,-3.37
2023-02-06T05:57:57.810Z,-3.03
2023-02-06T06:00:41.784Z,-3.05
2023-02-06T06:03:25.705Z,-3.03
2023-02-06T06:06:09.768Z,-3.06
2023-02-06T06:08:53.575Z,-3.12
2023-02-06T06:11:38.819Z,-3.18
2023-02-06T06:14:22.938Z,-3.15
2023-02-06T06:17:06.736Z,-2.96
2023-02-06T06:19:50.580Z,-3.25
2023-02-06T06:22:34.574Z,-2.77
2023-02-06T06:25:18.672Z,-2.70
2023-02-06T06:28:03.837Z,-2.59
2023-02-06T06:30:47.793Z,-2.51
2023-02-06T06:33:31.576Z,-2.54
2023-02-06T06:36:15.830Z,-2.72
2023-02-06T06:38:59.645Z,-2.52
2023-02-06T06:41:43.655Z,-2.48
2023-02-06T06:45:10.032Z,-2.67
2023-02-06T06:47:55.259Z,-2.66
2023-02-06T06:50:39.092Z,-2.43
2023-02-06T06:53:23.270Z,-2.39
2023-02-06T06:56:08.979Z,-2.43
2023-02-06T06:58:52.808Z,-2.41
2023-02-06T07:01:36.706Z,-2.41
2023-02-06T07:04:23.155Z,-2.43
2023-02-06T07:07:07.499Z,-2.51
2023-02-06T07:09:51.398Z,-2.27
2023-02-06T07:12:35.366Z,-2.12
2023-02-06T07:15:19.312Z,-2.24
2023-02-06T07:18:03.057Z,-2.46
2023-02-06T07:20:48.421Z,-2.14
2023-02-06T07:23:32.311Z,-2.24
2023-02-06T07:26:16.091Z,-2.16
2023-02-06T07:28:59.816Z,-2.28
2023-02-06T07:31:43.739Z,-2.70
2023-02-06T07:34:27.806Z,-2.38
2023-02-06T07:37:12.982Z,-2.29
2023-02-06T07:39:56.849Z,-2.15
2023-02-06T07:42:41.028Z,-1.86
2023-02-06T07:45:32.811Z,-1.43
2023-02-06T07:48:17.123Z,-1.54
2023-02-06T07:51:06.141Z,-1.64
2023-02-06T07:53:51.358Z,-1.16
2023-02-06T07:56:35.494Z,-1.48
2023-02-06T07:59:19.368Z,-1.51
2023-02-06T08:02:03.262Z,-1.56
2023-02-06T08:04:47.132Z,-1.69
2023-02-06T08:07:30.956Z,-1.55
2023-02-06T08:10:16.706Z,-0.93
2023-02-06T08:13:00.575Z,-0.94
2023-02-06T08:15:45.095Z,-1.01
2023-02-06T08:18:28.896Z,-0.82
2023-02-06T08:21:14.244Z,-1.59
2023-02-06T08:23:59.430Z,-1.73
2023-02-06T08:26:44.952Z,-1.25
2023-02-06T08:29:28.896Z,-1.53
2023-02-06T08:32:12.815Z,-1.19
2023-02-06T08:34:56.633Z,-1.02
2023-02-06T08:37:40.854Z,-1.03
2023-02-06T08:40:24.757Z,-0.98
2023-02-06T08:43:09.936Z,-0.80
2023-02-06T08:45:56.247Z,-1.03
2023-02-06T08:48:40.212Z,-1.15
2023-02-06T08:51:27.864Z,-0.80
2023-02-06T08:54:14.588Z,-0.49
2023-02-06T08:57:01.092Z,-0.57
2023-02-06T08:59:46.407Z,-0.43
2023-02-06T09:02:30.301Z,-0.83
2023-02-06T09:05:14.577Z,-0.77
2023-02-06T09:07:58.430Z,-0.68
2023-02-06T09:15:54.954Z,-0.80
2023-02-06T09:18:39.170Z,-0.76
2023-02-06T09:21:26.306Z,-0.69
2023-02-06T09:24:10.701Z,-0.49
2023-02-06T09:26:59.824Z,-0.78
2023-02-06T09:29:44.238Z,-0.32
2023-02-06T09:32:29.560Z,-0.87
2023-02-06T09:35:13.578Z,-0.83
2023-02-06T09:37:57.606Z,-1.00
2023-02-06T09:40:41.845Z,-0.80
2023-02-06T09:43:26.164Z,-0.73
2023-02-06T09:46:16.112Z,-1.05
2023-02-06T09:49:04.588Z,-0.85
2023-02-06T09:52:24.534Z,-1.25
2023-02-06T09:55:17.216Z,-1.49
2023-02-06T09:58:12.741Z,-1.22
2023-02-06T10:01:02.552Z,-1.49
2023-02-06T10:04:12.717Z,-1.27
2023-02-06T10:07:08.205Z,-1.22
2023-02-06T10:09:57.500Z,-1.47
2023-02-06T10:12:45.554Z,-1.17
2023-02-06T10:15:35.317Z,-0.80
2023-02-06T10:18:25.401Z,-0.38
2023-02-06T10:21:16.485Z,-0.54
2023-02-06T10:24:09.727Z,-0.61
2023-02-06T10:26:54.628Z,-0.80
2023-02-06T10:29:38.850Z,-0.77
2023-02-06T10:32:38.841Z,-0.90
2023-02-06T10:35:49.857Z,-0.80
2023-02-06T10:39:14.112Z,-1.41
2023-02-06T10:42:06.604Z,-1.36
2023-02-06T10:45:09.522Z,-0.42
2023-02-06T10:48:10.038Z,-0.65
2023-02-06T10:50:57.749Z,-0.80
2023-02-06T10:53:49.979Z,-0.62
2023-02-06T10:56:41.003Z,-0.98
2023-02-06T10:59:30.134Z,-1.41
2023-02-06T11:02:21.599Z,-0.72
2023-02-06T11:05:09.165Z,-0.49
2023-02-06T11:07:55.097Z,-0.66
2023-02-06T11:10:39.342Z,-0.52
2023-02-06T11:13:28.584Z,-0.82
2023-02-06T11:16:16.567Z,-0.89
2023-02-06T11:19:10.973Z,-0.72
2023-02-06T11:21:57.208Z,-0.86
2023-02-06T11:25:00.120Z,-0.70
2023-02-06T11:27:44.461Z,-0.71
2023-02-06T11:30:36.017Z,-0.92
2023-02-06T11:33:23.292Z,-0.85
2023-02-06T11:36:09.170Z,-0.72
2023-02-06T11:38:58.842Z,-0.69
2023-02-06T11:41:56.854Z,-0.27
2023-02-06T11:44:43.626Z,-0.45
2023-02-06T11:47:32.538Z,-0.56
2023-02-06T11:50:28.705Z,-0.72
2023-02-06T11:53:16.864Z,-1.21
2023-02-06T11:56:04.336Z,-0.38
2023-02-06T11:59:01.883Z,-0.03
2023-02-06T12:01:47.912Z,-0.43
2023-02-06T12:04:37.672Z,-0.36
2023-02-06T12:07:30.136Z,-1.07
2023-02-06T12:10:16.125Z,-0.82
2023-02-06T12:13:08.187Z,-1.14
2023-02-06T12:15:55.330Z,-1.52
2023-02-06T12:18:41.366Z,-1.23
2023-02-06T12:21:31.415Z,-1.86
2023-02-06T12:24:26.623Z,-1.26
2023-02-06T12:27:16.430Z,-1.29
2023-02-06T12:30:07.482Z,-0.74
2023-02-06T12:33:00.026Z,-0.99
2023-02-06T12:35:48.239Z,-0.63
2023-02-06T12:38:43.140Z,-0.87
2023-02-06T12:41:42.539Z,-1.35
2023-02-06T12:44:33.701Z,-1.17
2023-02-06T12:47:25.104Z,-1.05
2023-02-06T12:50:17.793Z,-1.46
2023-02-06T12:53:06.166Z,-1.33
2023-02-06T12:55:59.609Z,-1.47
2023-02-06T12:58:57.545Z,-1.60
2023-02-06T13:01:54.871Z,-1.12
2023-02-06T13:04:39.287Z,-1.25
2023-02-06T13:07:28.329Z,-0.88
2023-02-06T13:10:20.458Z,-0.94
2023-02-06T13:13:06.422Z,-1.02
2023-02-06T13:15:55.309Z,-0.82
2023-02-06T13:19:03.782Z,-1.19
2023-02-06T13:21:52.976Z,-1.30
2023-02-06T13:24:38.080Z,-1.22
2023-02-06T13:27:25.289Z,-1.03
2023-02-06T13:30:50.155Z,-0.89
2023-02-06T13:33:42.677Z,-1.44
2023-02-06T13:36:42.367Z,-1.36
2023-02-06T13:39:32.663Z,-1.11
2023-02-06T13:42:44.217Z,-0.97
2023-02-06T13:45:41.673Z,-0.94
2023-02-06T13:48:55.367Z,-1.21
2023-02-06T13:51:54.178Z,-1.14
2023-02-06T13:55:00.884Z,-0.98
2023-02-06T13:58:14.145Z,-1.10
2023-02-06T14:01:01.475Z,-1.12
2023-02-06T14:03:47.308Z,-1.01
2023-02-06T14:06:44.524Z,-0.72
2023-02-06T14:09:48.821Z,-0.62
2023-02-06T14:12:57.435Z,-0.46
2023-02-06T14:15:52.058Z,-1.07
2023-02-06T14:18:46.972Z,-0.85
2023-02-06T14:21:38.787Z,-1.49
2023-02-06T14:25:04.197Z,-1.08
2023-02-06T14:28:01.366Z,-1.44
2023-02-06T14:30:52.166Z,-1.14
2023-02-06T14:33:56.343Z,-0.95
2023-02-06T14:37:05.368Z,-1.21
2023-02-06T14:39:51.603Z,-1.12
2023-02-06T14:42:40.484Z,-1.41
2023-02-06T14:45:41.044Z,-1.46
2023-02-06T14:48:32.958Z,-1.70
2023-02-06T14:51:24.937Z,-1.56
2023-02-06T14:54:30.013Z,-1.71
2023-02-06T14:57:21.183Z,-1.54
2023-02-06T15:00:18.483Z,-1.71
2023-02-06T15:03:08.585Z,-1.79
2023-02-06T15:06:02.315Z,-1.77
2023-02-06T15:08:51.084Z,-2.16
2023-02-06T15:11:35.711Z,-1.86
2023-02-06T15:14:23.290Z,-2.11
2023-02-06T15:17:07.149Z,-2.00
2023-02-06T15:19:51.156Z,-2.32
2023-02-06T15:22:36.984Z,-2.09
2023-02-06T15:25:34.972Z,-1.94
2023-02-06T15:28:21.701Z,-2.24
2023-02-06T15:31:06.359Z,-2.53
2023-02-06T15:33:52.432Z,-2.33
2023-02-06T15:36:37.969Z,-1.96
2023-02-06T15:39:21.984Z,-2.33
2023-02-06T15:42:07.294Z,-2.20
2023-02-06T15:44:51.566Z,-2.46
2023-02-06T15:47:35.790Z,-2.31
2023-02-06T15:50:21.330Z,-2.06
2023-02-06T15:53:18.827Z,-2.52
2023-02-06T15:56:05.251Z,-2.22
2023-02-06T15:58:58.948Z,-2.64
2023-02-06T16:01:44.874Z,-2.36
2023-02-06T16:04:32.323Z,-2.28
2023-02-06T16:07:19.784Z,-2.45
2023-02-06T16:10:13.443Z,-2.20
2023-02-06T16:13:00.225Z,-2.29
2023-02-06T16:16:03.318Z,-2.34
2023-02-06T16:18:47.384Z,-2.00
2023-02-06T16:21:35.591Z,-2.06
2023-02-06T16:24:22.316Z,-2.10
2023-02-06T16:27:17.539Z,-2.52
2023-02-06T16:30:01.659Z,-1.95
2023-02-06T16:32:49.223Z,-1.95
2023-02-06T16:35:33.109Z,-2.39
2023-02-06T16:38:17.060Z,-2.27
2023-02-06T16:41:01.152Z,-2.17
2023-02-06T16:43:45.246Z,-2.22
2023-02-06T16:46:29.483Z,-2.04
2023-02-06T16:49:17.318Z,-1.91
2023-02-06T16:52:01.607Z,-2.20
2023-02-06T16:54:46.898Z,-2.07
2023-02-06T16:57:35.108Z,-2.01
2023-02-06T17:00:21.256Z,-1.89
2023-02-06T17:03:06.067Z,-2.17
2023-02-06T17:05:53.085Z,-2.08
2023-02-06T17:08:40.303Z,-1.97
2023-02-06T17:11:24.132Z,-2.15
2023-02-06T17:14:08.089Z,-1.84
2023-02-06T17:16:52.195Z,-1.98
2023-02-06T17:19:36.089Z,-2.14
2023-02-06T17:22:21.600Z,-2.39
2023-02-06T17:25:06.141Z,-1.92
2023-02-06T17:27:50.210Z,-2.43
2023-02-06T17:30:36.078Z,-2.35
2023-02-06T17:33:20.804Z,-2.36
2023-02-06T17:36:07.866Z,-2.37
2023-02-06T17:38:53.301Z,-2.17
2023-02-06T17:41:37.332Z,-2.27
2023-02-06T17:44:21.401Z,-2.40
2023-02-06T17:47:05.717Z,-2.64
2023-02-06T17:49:49.772Z,-2.84
2023-02-06T17:52:33.704Z,-2.39
2023-02-06T17:55:19.082Z,-3.28
2023-02-06T17:58:02.967Z,-2.27
2023-02-06T18:00:49.348Z,-2.32
2023-02-06T18:03:33.233Z,-2.49
2023-02-06T18:06:17.108Z,-2.48
2023-02-06T18:09:01.016Z,-2.67
2023-02-06T18:11:46.472Z,-2.76
2023-02-06T18:14:30.216Z,-2.73
2023-02-06T18:17:14.059Z,-2.58
2023-02-06T18:19:58.290Z,-2.63
2023-02-06T18:22:42.194Z,-2.41
2023-02-06T18:25:25.936Z,-2.62
2023-02-06T18:28:13.946Z,-2.52
2023-02-06T18:30:58.121Z,-2.53
2023-02-06T18:33:41.879Z,-2.52
2023-02-06T18:36:26.216Z,-2.27
2023-02-06T18:39:11.745Z,-2.33
2023-02-06T18:42:13.187Z,-2.42
2023-02-06T18:44:58.337Z,-2.26
2023-02-06T18:47:42.469Z,-2.25
2023-02-06T18:50:26.481Z,-2.46
2023-02-06T18:53:10.888Z,-2.38
2023-02-06T18:55:58.986Z,-2.31
2023-02-06T18:58:43.016Z,-2.25
2023-02-06T19:01:28.379Z,-2.47
2023-02-06T19:04:12.135Z,-2.31
2023-02-06T19:06:56.080Z,-2.26
2023-02-06T19:09:40.023Z,-2.41
2023-02-06T19:12:23.901Z,-2.40
2023-02-06T19:15:08.943Z,-2.35
2023-02-06T19:17:54.248Z,-2.31
2023-02-06T19:20:38.462Z,-2.36
2023-02-06T19:23:22.792Z,-2.44
2023-02-06T19:26:07.992Z,-2.56
2023-02-06T19:28:52.489Z,-2.38
2023-02-06T19:31:39.250Z,-2.40
2023-02-06T19:34:24.778Z,-2.57
2023-02-06T19:37:11.356Z,-2.42
2023-02-06T19:39:55.282Z,-2.16
2023-02-06T19:42:40.766Z,-2.29
2023-02-06T19:45:24.748Z,-2.63
2023-02-06T19:48:12.298Z,-2.76
2023-02-06T19:50:57.721Z,-2.61
2023-02-06T19:53:45.857Z,-2.50
2023-02-06T19:56:34.641Z,-2.38
2023-02-06T19:59:21.701Z,-2.38
2023-02-06T20:02:05.733Z,-2.43
2023-02-06T20:04:49.581Z,-2.80
2023-02-06T20:07:34.901Z,-2.65
2023-02-06T20:10:18.689Z,-2.29
2023-02-06T20:13:02.482Z,-2.49
2023-02-06T20:15:46.395Z,-2.45
2023-02-06T20:18:30.282Z,-2.59
2023-02-06T20:21:21.998Z,-2.44
2023-02-06T20:24:10.124Z,-2.44
2023-02-06T20:26:56.420Z,-2.66
2023-02-06T20:29:42.557Z,-2.48
2023-02-06T20:32:26.324Z,-2.37
2023-02-06T20:35:10.201Z,-2.57
2023-02-06T20:37:54.058Z,-2.63
2023-02-06T20:40:43.778Z,-2.55
2023-02-06T20:43:27.591Z,-2.49
2023-02-06T20:46:11.521Z,-2.61
2023-02-06T20:48:57.378Z,-2.50
2023-02-06T20:51:41.262Z,-2.62
2023-02-06T20:54:26.116Z,-2.82
2023-02-06T20:57:11.312Z,-2.58
2023-02-06T20:59:55.197Z,-2.41
2023-02-06T21:02:38.974Z,-2.45
2023-02-06T21:05:22.770Z,-2.49
2023-02-06T21:08:06.572Z,-2.57
2023-02-06T21:10:51.159Z,-2.72
2023-02-06T21:13:36.669Z,-2.64
2023-02-06T21:16:20.416Z,-2.70
2023-02-06T21:19:07.029Z,-2.96
2023-02-06T21:21:51.147Z,-3.01
2023-02-06T21:24:34.916Z,-2.82
2023-02-06T21:27:18.780Z,-3.00
2023-02-06T21:30:05.050Z,-2.91
2023-02-06T21:32:48.912Z,-3.20
2023-02-06T21:35:33.904Z,-2.92
2023-02-06T21:38:18.125Z,-2.84
2023-02-06T21:41:05.171Z,-2.93
2023-02-06T21:43:49.189Z,-2.85
2023-02-06T21:46:34.588Z,-3.17
2023-02-06T21:49:18.766Z,-3.03
2023-02-06T21:52:02.557Z,-2.95
2023-02-06T21:54:46.423Z,-3.01
2023-02-06T21:57:30.280Z,-3.05
2023-02-06T22:00:15.169Z,-3.21
2023-02-06T22:03:00.349Z,-3.16
2023-02-06T22:05:44.293Z,-3.03
2023-02-06T22:08:28.114Z,-3.13
2023-02-06T22:11:14.268Z,-3.26
2023-02-06T22:13:59.783Z,-3.17
2023-02-06T22:16:46.642Z,-3.01
2023-02-06T22:19:32.024Z,-3.35
2023-02-06T22:22:16.072Z,-3.43
2023-02-06T22:25:00.108Z,-3.20
2023-02-06T22:27:44.129Z,-3.15
2023-02-06T22:30:27.943Z,-3.23
2023-02-06T22:33:11.773Z,-3.16
2023-02-06T22:35:56.999Z,-3.40
2023-02-06T22:38:41.852Z,-3.25
2023-02-06T22:41:25.768Z,-3.29
2023-02-06T22:44:09.656Z,-3.35
2023-02-06T22:46:54.326Z,-3.21
2023-02-06T22:49:38.242Z,-3.21
2023-02-06T22:52:40.683Z,-3.26
2023-02-06T22:55:24.814Z,-3.14
2023-02-06T22:58:08.634Z,-3.22
2023-02-06T23:00:52.489Z,-3.14
2023-02-06T23:03:36.461Z,-3.30
2023-02-06T23:06:20.536Z,-3.37
2023-02-06T23:09:07.523Z,-3.19
2023-02-06T23:11:51.845Z,-3.19
2023-02-06T23:14:35.661Z,-3.10
2023-02-06T23:17:19.444Z,-3.13
2023-02-06T23:20:03.185Z,-2.98
2023-02-06T23:22:47.069Z,-2.97
2023-02-06T23:25:32.821Z,-2.92
2023-02-06T23:28:16.876Z,-3.09
2023-02-06T23:31:00.836Z,-2.96
2023-02-06T23:33:44.681Z,-3.07
2023-02-06T23:36:29.688Z,-2.91
2023-02-06T23:39:13.523Z,-2.79
2023-02-06T23:41:58.721Z,-2.77
2023-02-06T23:44:42.653Z,-2.91
2023-02-06T23:47:26.489Z,-2.86
2023-02-06T23:50:11.074Z,-2.62
2023-02-06T23:52:55.113Z,-2.76
2023-02-06T23:55:40.524Z,-2.78
2023-02-06T23:58:26.152Z,-2.69
